ITY3321 LICC-LIEO
Flight info
| Callsign | ITY3321 |
|---|---|
| Flight time | 1h 16m |
| Altitude | 32000 |
| Route | BUDIN DCT AMANO DCT ROXAN/N0446F330 DCT ATNET |
| Aircraft | A320/M-SDE3FGHIRWY/LB1 |
Departure
| Time | 2026-05-07 11:41 |
|---|---|
| Airport | Catania-Fontanarossa Airport (LICC) |
Arrival
| Time | 2026-05-07 12:57 |
|---|---|
| Airport | Olbia Costa Smeralda Airport (LIEO) |
| Time | Latitude | Longitude | Altitude | Speed | Heading |
|---|---|---|---|---|---|
| 2026-05-07 11:12 | 37.46881 | 15.06091 | 51 ft | 0 kts | 354° |
| 2026-05-07 11:32 | 37.46878 | 15.06091 | 51 ft | 2 kts | 354° |
| 2026-05-07 11:32 | 37.46861 | 15.06094 | 51 ft | 2 kts | 354° |
| 2026-05-07 11:33 | 37.46844 | 15.06096 | 46 ft | 2 kts | 354° |
| 2026-05-07 11:33 | 37.46827 | 15.06098 | 49 ft | 2 kts | 354° |
| 2026-05-07 11:33 | 37.46809 | 15.06111 | 46 ft | 2 kts | 270° |
| 2026-05-07 11:33 | 37.46809 | 15.06113 | 46 ft | 0 kts | 268° |
| 2026-05-07 11:37 | 37.46809 | 15.06112 | 46 ft | 1 kts | 268° |
| 2026-05-07 11:37 | 37.46808 | 15.06094 | 48 ft | 4 kts | 267° |
| 2026-05-07 11:37 | 37.46802 | 15.06038 | 51 ft | 8 kts | 259° |
| 2026-05-07 11:37 | 37.46790 | 15.05960 | 49 ft | 11 kts | 260° |
| 2026-05-07 11:38 | 37.46778 | 15.05853 | 49 ft | 14 kts | 262° |
| 2026-05-07 11:38 | 37.46767 | 15.05735 | 51 ft | 13 kts | 264° |
| 2026-05-07 11:38 | 37.46758 | 15.05625 | 51 ft | 12 kts | 264° |
| 2026-05-07 11:38 | 37.46750 | 15.05515 | 51 ft | 13 kts | 265° |
| 2026-05-07 11:39 | 37.46740 | 15.05408 | 51 ft | 12 kts | 262° |
| 2026-05-07 11:39 | 37.46717 | 15.05313 | 49 ft | 12 kts | 235° |
| 2026-05-07 11:39 | 37.46650 | 15.05233 | 51 ft | 14 kts | 221° |
| 2026-05-07 11:39 | 37.46571 | 15.05220 | 49 ft | 12 kts | 131° |
| 2026-05-07 11:40 | 37.46567 | 15.05323 | 51 ft | 12 kts | 84° |
| 2026-05-07 11:40 | 37.46582 | 15.05503 | 50 ft | 45 kts | 83° |
| 2026-05-07 11:40 | 37.46641 | 15.06177 | 51 ft | 107 kts | 84° |
| 2026-05-07 11:40 | 37.46731 | 15.07305 | 176 ft | 145 kts | 80° |
| 2026-05-07 11:41 | 37.46786 | 15.08612 | 726 ft | 152 kts | 80° |
| 2026-05-07 11:41 | 37.46902 | 15.09911 | 1487 ft | 148 kts | 81° |
| 2026-05-07 11:41 | 37.47100 | 15.11282 | 1789 ft | 171 kts | 80° |
| 2026-05-07 11:41 | 37.47340 | 15.12852 | 2051 ft | 195 kts | 81° |
| 2026-05-07 11:42 | 37.47605 | 15.14615 | 2625 ft | 208 kts | 82° |
| 2026-05-07 11:42 | 37.47867 | 15.16413 | 3417 ft | 216 kts | 84° |
| 2026-05-07 11:42 | 37.48138 | 15.18305 | 4251 ft | 223 kts | 83° |
| 2026-05-07 11:42 | 37.48417 | 15.20249 | 5121 ft | 226 kts | 84° |
| 2026-05-07 11:43 | 37.48700 | 15.22234 | 5885 ft | 233 kts | 86° |
| 2026-05-07 11:43 | 37.48987 | 15.24294 | 6520 ft | 245 kts | 84° |
| 2026-05-07 11:43 | 37.49329 | 15.26436 | 7060 ft | 261 kts | 78° |
| 2026-05-07 11:43 | 37.50135 | 15.28549 | 7704 ft | 277 kts | 60° |
| 2026-05-07 11:44 | 37.51515 | 15.30383 | 8236 ft | 300 kts | 40° |
| 2026-05-07 11:44 | 37.53311 | 15.31814 | 8888 ft | 310 kts | 33° |
| 2026-05-07 11:44 | 37.55173 | 15.33253 | 9600 ft | 317 kts | 32° |
| 2026-05-07 11:44 | 37.57080 | 15.34735 | 10190 ft | 329 kts | 31° |
| 2026-05-07 11:45 | 37.59095 | 15.36308 | 10428 ft | 352 kts | 31° |
| 2026-05-07 11:45 | 37.61233 | 15.37982 | 10800 ft | 368 kts | 31° |
| 2026-05-07 11:45 | 37.63425 | 15.39700 | 11483 ft | 372 kts | 31° |
| 2026-05-07 11:45 | 37.65600 | 15.41407 | 11854 ft | 374 kts | 31° |
| 2026-05-07 11:46 | 37.67839 | 15.43070 | 11963 ft | 373 kts | 24° |
| 2026-05-07 11:46 | 37.70266 | 15.44169 | 11985 ft | 369 kts | 11° |
| 2026-05-07 11:46 | 37.72812 | 15.44565 | 11986 ft | 365 kts | 357° |
| 2026-05-07 11:46 | 37.75322 | 15.44258 | 12014 ft | 362 kts | 343° |
| 2026-05-07 11:47 | 37.77716 | 15.43272 | 12670 ft | 361 kts | 334° |
| 2026-05-07 11:47 | 37.80050 | 15.42093 | 13502 ft | 361 kts | 334° |
| 2026-05-07 11:47 | 37.82395 | 15.40932 | 14219 ft | 363 kts | 334° |
| 2026-05-07 11:47 | 37.84755 | 15.39769 | 14859 ft | 365 kts | 334° |
| 2026-05-07 11:48 | 37.87132 | 15.38593 | 15492 ft | 368 kts | 334° |
| 2026-05-07 11:48 | 37.89529 | 15.37405 | 16135 ft | 371 kts | 334° |
| 2026-05-07 11:48 | 37.91935 | 15.36203 | 16751 ft | 374 kts | 334° |
| 2026-05-07 11:48 | 37.94363 | 15.34985 | 17345 ft | 377 kts | 334° |
| 2026-05-07 11:49 | 37.96793 | 15.33763 | 17913 ft | 380 kts | 334° |
| 2026-05-07 11:49 | 37.99258 | 15.32521 | 18474 ft | 383 kts | 333° |
| 2026-05-07 11:49 | 38.01745 | 15.31264 | 19006 ft | 385 kts | 333° |
| 2026-05-07 11:49 | 38.04250 | 15.30001 | 19542 ft | 387 kts | 333° |
| 2026-05-07 11:50 | 38.06765 | 15.28735 | 20093 ft | 389 kts | 333° |
| 2026-05-07 11:50 | 38.09292 | 15.27463 | 20619 ft | 391 kts | 333° |
| 2026-05-07 11:50 | 38.11823 | 15.26183 | 21072 ft | 393 kts | 332° |
| 2026-05-07 11:50 | 38.14371 | 15.24890 | 21589 ft | 396 kts | 332° |
| 2026-05-07 11:51 | 38.16939 | 15.23592 | 22115 ft | 398 kts | 332° |
| 2026-05-07 11:51 | 38.19525 | 15.22292 | 22620 ft | 400 kts | 332° |
| 2026-05-07 11:51 | 38.22090 | 15.21003 | 23086 ft | 402 kts | 332° |
| 2026-05-07 11:51 | 38.24699 | 15.19688 | 23555 ft | 404 kts | 331° |
| 2026-05-07 11:52 | 38.27320 | 15.18360 | 23951 ft | 406 kts | 331° |
| 2026-05-07 11:52 | 38.29947 | 15.17022 | 24385 ft | 407 kts | 330° |
| 2026-05-07 11:52 | 38.32581 | 15.15679 | 24800 ft | 408 kts | 330° |
| 2026-05-07 11:52 | 38.35216 | 15.14335 | 25203 ft | 409 kts | 330° |
| 2026-05-07 11:53 | 38.37860 | 15.12989 | 25641 ft | 409 kts | 330° |
| 2026-05-07 11:53 | 38.40507 | 15.11642 | 26053 ft | 410 kts | 329° |
| 2026-05-07 11:53 | 38.43157 | 15.10290 | 26453 ft | 411 kts | 329° |
| 2026-05-07 11:53 | 38.45760 | 15.08821 | 26847 ft | 405 kts | 323° |
| 2026-05-07 11:54 | 38.48128 | 15.06921 | 27218 ft | 397 kts | 315° |
| 2026-05-07 11:54 | 38.50197 | 15.04636 | 27602 ft | 390 kts | 307° |
| 2026-05-07 11:54 | 38.52065 | 15.02137 | 27991 ft | 390 kts | 306° |
| 2026-05-07 11:54 | 38.53935 | 14.99627 | 28382 ft | 390 kts | 306° |
| 2026-05-07 11:55 | 38.55791 | 14.97143 | 28759 ft | 391 kts | 306° |
| 2026-05-07 11:55 | 38.57674 | 14.94628 | 29135 ft | 392 kts | 306° |
| 2026-05-07 11:55 | 38.59569 | 14.92104 | 29501 ft | 393 kts | 305° |
| 2026-05-07 11:55 | 38.61470 | 14.89571 | 29781 ft | 396 kts | 305° |
| 2026-05-07 11:56 | 38.63372 | 14.87028 | 30146 ft | 395 kts | 305° |
| 2026-05-07 11:56 | 38.65268 | 14.84489 | 30519 ft | 394 kts | 305° |
| 2026-05-07 11:56 | 38.67156 | 14.81957 | 30813 ft | 394 kts | 305° |
| 2026-05-07 11:56 | 38.69048 | 14.79416 | 31127 ft | 393 kts | 305° |
| 2026-05-07 11:57 | 38.70933 | 14.76886 | 31514 ft | 392 kts | 305° |
| 2026-05-07 11:57 | 38.72812 | 14.74365 | 31840 ft | 391 kts | 305° |
| 2026-05-07 11:57 | 38.74679 | 14.71860 | 31920 ft | 384 kts | 305° |
| 2026-05-07 11:58 | 38.78265 | 14.67066 | 31933 ft | 370 kts | 304° |
| 2026-05-07 11:58 | 38.81796 | 14.62291 | 31928 ft | 367 kts | 304° |
| 2026-05-07 11:59 | 38.85313 | 14.57525 | 31934 ft | 367 kts | 304° |
| 2026-05-07 11:59 | 38.88803 | 14.52787 | 31934 ft | 367 kts | 304° |
| 2026-05-07 12:00 | 38.92321 | 14.48014 | 31957 ft | 366 kts | 304° |
| 2026-05-07 12:00 | 38.95826 | 14.43266 | 31962 ft | 365 kts | 304° |
| 2026-05-07 12:01 | 38.99314 | 14.38526 | 31960 ft | 364 kts | 304° |
| 2026-05-07 12:01 | 39.02785 | 14.33798 | 31957 ft | 363 kts | 304° |
| 2026-05-07 12:02 | 39.06240 | 14.29090 | 31954 ft | 363 kts | 304° |
| 2026-05-07 12:02 | 39.09700 | 14.24353 | 31949 ft | 363 kts | 304° |
| 2026-05-07 12:03 | 39.13170 | 14.19607 | 31971 ft | 363 kts | 304° |
| 2026-05-07 12:03 | 39.16608 | 14.14895 | 32006 ft | 364 kts | 304° |
| 2026-05-07 12:04 | 39.20088 | 14.10141 | 31989 ft | 364 kts | 304° |
| 2026-05-07 12:04 | 39.23561 | 14.05373 | 31982 ft | 364 kts | 304° |
| 2026-05-07 12:05 | 39.27024 | 14.00597 | 31976 ft | 364 kts | 304° |
| 2026-05-07 12:05 | 39.30486 | 13.95814 | 31963 ft | 364 kts | 304° |
| 2026-05-07 12:06 | 39.33950 | 13.91035 | 31964 ft | 364 kts | 304° |
| 2026-05-07 12:06 | 39.37396 | 13.86284 | 31963 ft | 364 kts | 304° |
| 2026-05-07 12:07 | 39.40857 | 13.81502 | 31962 ft | 364 kts | 304° |
| 2026-05-07 12:07 | 39.43998 | 13.76468 | 31985 ft | 358 kts | 298° |
| 2026-05-07 12:08 | 39.46948 | 13.71252 | 31958 ft | 360 kts | 298° |
| 2026-05-07 12:08 | 39.49912 | 13.66013 | 31958 ft | 361 kts | 298° |
| 2026-05-07 12:09 | 39.52885 | 13.60768 | 31953 ft | 361 kts | 298° |
| 2026-05-07 12:09 | 39.55850 | 13.55513 | 31955 ft | 361 kts | 298° |
| 2026-05-07 12:10 | 39.58820 | 13.50251 | 31949 ft | 361 kts | 298° |
| 2026-05-07 12:10 | 39.61778 | 13.44986 | 31970 ft | 361 kts | 297° |
| 2026-05-07 12:11 | 39.64735 | 13.39727 | 31968 ft | 361 kts | 297° |
| 2026-05-07 12:11 | 39.67672 | 13.34498 | 31965 ft | 360 kts | 297° |
| 2026-05-07 12:12 | 39.70616 | 13.29224 | 31967 ft | 360 kts | 297° |
| 2026-05-07 12:12 | 39.73570 | 13.23944 | 31985 ft | 361 kts | 298° |
| 2026-05-07 12:13 | 39.76534 | 13.18642 | 31965 ft | 362 kts | 298° |
| 2026-05-07 12:13 | 39.79475 | 13.13368 | 31975 ft | 362 kts | 298° |
| 2026-05-07 12:14 | 39.82437 | 13.08048 | 31967 ft | 363 kts | 297° |
| 2026-05-07 12:14 | 39.85395 | 13.02708 | 31964 ft | 364 kts | 297° |
| 2026-05-07 12:15 | 39.88366 | 12.97363 | 31961 ft | 364 kts | 297° |
| 2026-05-07 12:15 | 39.91329 | 12.92011 | 31963 ft | 364 kts | 297° |
| 2026-05-07 12:16 | 39.94287 | 12.86643 | 31972 ft | 364 kts | 297° |
| 2026-05-07 12:16 | 39.97235 | 12.81295 | 31974 ft | 365 kts | 297° |
| 2026-05-07 12:17 | 40.00201 | 12.75911 | 31989 ft | 365 kts | 297° |
| 2026-05-07 12:17 | 40.03144 | 12.70557 | 31981 ft | 365 kts | 297° |
| 2026-05-07 12:18 | 40.06101 | 12.65160 | 31979 ft | 366 kts | 297° |
| 2026-05-07 12:18 | 40.09059 | 12.59756 | 31981 ft | 366 kts | 297° |
| 2026-05-07 12:19 | 40.12026 | 12.54336 | 31978 ft | 366 kts | 297° |
| 2026-05-07 12:19 | 40.14966 | 12.48950 | 31978 ft | 366 kts | 297° |
| 2026-05-07 12:20 | 40.17926 | 12.43510 | 31979 ft | 366 kts | 297° |
| 2026-05-07 12:20 | 40.20866 | 12.38114 | 31996 ft | 366 kts | 297° |
| 2026-05-07 12:21 | 40.23324 | 12.33591 | 31989 ft | 367 kts | 297° |
| 2026-05-07 12:21 | 40.26289 | 12.28138 | 32009 ft | 368 kts | 297° |
| 2026-05-07 12:22 | 40.29253 | 12.22655 | 31985 ft | 369 kts | 297° |
| 2026-05-07 12:22 | 40.32221 | 12.17149 | 31982 ft | 370 kts | 297° |
| 2026-05-07 12:23 | 40.35206 | 12.11622 | 31982 ft | 371 kts | 297° |
| 2026-05-07 12:23 | 40.38195 | 12.06088 | 31982 ft | 372 kts | 297° |
| 2026-05-07 12:24 | 40.41184 | 12.00531 | 31995 ft | 373 kts | 297° |
| 2026-05-07 12:24 | 40.44154 | 11.94993 | 31988 ft | 374 kts | 297° |
| 2026-05-07 12:25 | 40.47169 | 11.89367 | 31988 ft | 374 kts | 297° |
| 2026-05-07 12:25 | 40.50147 | 11.83806 | 31988 ft | 374 kts | 297° |
| 2026-05-07 12:26 | 40.53135 | 11.78196 | 32009 ft | 374 kts | 297° |
| 2026-05-07 12:26 | 40.56129 | 11.72571 | 31994 ft | 375 kts | 297° |
| 2026-05-07 12:27 | 40.59121 | 11.66936 | 32006 ft | 376 kts | 297° |
| 2026-05-07 12:27 | 40.62111 | 11.61313 | 31991 ft | 378 kts | 297° |
| 2026-05-07 12:28 | 40.65127 | 11.55630 | 31987 ft | 379 kts | 297° |
| 2026-05-07 12:28 | 40.68138 | 11.49929 | 31987 ft | 379 kts | 297° |
| 2026-05-07 12:29 | 40.71158 | 11.44207 | 31990 ft | 380 kts | 297° |
| 2026-05-07 12:29 | 40.74156 | 11.38516 | 31992 ft | 380 kts | 297° |
| 2026-05-07 12:30 | 40.77173 | 11.32776 | 31995 ft | 380 kts | 297° |
| 2026-05-07 12:30 | 40.80189 | 11.27036 | 32037 ft | 380 kts | 296° |
| 2026-05-07 12:31 | 40.82294 | 11.20858 | 32033 ft | 363 kts | 277° |
| 2026-05-07 12:31 | 40.82557 | 11.14332 | 32025 ft | 355 kts | 263° |
| 2026-05-07 12:31 | 40.82377 | 11.11084 | 31852 ft | 355 kts | 263° |
| 2026-05-07 12:32 | 40.82200 | 11.07849 | 31351 ft | 351 kts | 263° |
| 2026-05-07 12:32 | 40.82026 | 11.04657 | 30918 ft | 346 kts | 263° |
| 2026-05-07 12:32 | 40.81853 | 11.01550 | 30475 ft | 341 kts | 263° |
| 2026-05-07 12:32 | 40.81678 | 10.98453 | 30077 ft | 336 kts | 263° |
| 2026-05-07 12:33 | 40.81332 | 10.92386 | 29223 ft | 325 kts | 263° |
| 2026-05-07 12:33 | 40.81159 | 10.89424 | 28832 ft | 320 kts | 263° |
| 2026-05-07 12:33 | 40.80990 | 10.86520 | 28445 ft | 314 kts | 263° |
| 2026-05-07 12:34 | 40.80825 | 10.83662 | 28086 ft | 311 kts | 263° |
| 2026-05-07 12:34 | 40.80660 | 10.80822 | 27721 ft | 310 kts | 263° |
| 2026-05-07 12:34 | 40.80493 | 10.77987 | 27350 ft | 309 kts | 263° |
| 2026-05-07 12:34 | 40.80328 | 10.75165 | 27006 ft | 308 kts | 263° |
| 2026-05-07 12:35 | 40.80162 | 10.72352 | 26652 ft | 307 kts | 264° |
| 2026-05-07 12:35 | 40.79995 | 10.69551 | 26301 ft | 306 kts | 264° |
| 2026-05-07 12:35 | 40.79830 | 10.66789 | 25959 ft | 305 kts | 264° |
| 2026-05-07 12:35 | 40.79664 | 10.63996 | 25609 ft | 304 kts | 264° |
| 2026-05-07 12:36 | 40.79497 | 10.61215 | 25249 ft | 304 kts | 264° |
| 2026-05-07 12:36 | 40.79329 | 10.58433 | 24890 ft | 303 kts | 264° |
| 2026-05-07 12:36 | 40.79161 | 10.55667 | 24536 ft | 302 kts | 264° |
| 2026-05-07 12:36 | 40.78994 | 10.52908 | 24167 ft | 300 kts | 264° |
| 2026-05-07 12:37 | 40.78827 | 10.50165 | 23797 ft | 300 kts | 265° |
| 2026-05-07 12:37 | 40.78659 | 10.47429 | 23401 ft | 299 kts | 265° |
| 2026-05-07 12:37 | 40.78490 | 10.44699 | 23001 ft | 298 kts | 264° |
| 2026-05-07 12:37 | 40.78319 | 10.41970 | 22628 ft | 298 kts | 264° |
| 2026-05-07 12:38 | 40.78148 | 10.39251 | 22246 ft | 297 kts | 264° |
| 2026-05-07 12:38 | 40.77978 | 10.36537 | 21874 ft | 296 kts | 264° |
| 2026-05-07 12:38 | 40.77812 | 10.33858 | 21506 ft | 296 kts | 264° |
| 2026-05-07 12:38 | 40.77642 | 10.31154 | 21134 ft | 295 kts | 264° |
| 2026-05-07 12:39 | 40.77475 | 10.28454 | 20764 ft | 295 kts | 263° |
| 2026-05-07 12:39 | 40.77307 | 10.25755 | 20391 ft | 294 kts | 263° |
| 2026-05-07 12:39 | 40.77136 | 10.23061 | 20022 ft | 294 kts | 263° |
| 2026-05-07 12:39 | 40.76966 | 10.20370 | 19664 ft | 294 kts | 263° |
| 2026-05-07 12:40 | 40.76790 | 10.17615 | 19301 ft | 303 kts | 263° |
| 2026-05-07 12:40 | 40.76614 | 10.14851 | 18933 ft | 302 kts | 263° |
| 2026-05-07 12:40 | 40.76438 | 10.12089 | 18522 ft | 303 kts | 262° |
| 2026-05-07 12:40 | 40.76262 | 10.09349 | 18070 ft | 303 kts | 262° |
| 2026-05-07 12:41 | 40.76083 | 10.06571 | 17592 ft | 305 kts | 262° |
| 2026-05-07 12:41 | 40.75900 | 10.03783 | 17151 ft | 305 kts | 262° |
| 2026-05-07 12:41 | 40.75714 | 10.01002 | 16763 ft | 304 kts | 262° |
| 2026-05-07 12:41 | 40.75529 | 9.98229 | 16361 ft | 303 kts | 263° |
| 2026-05-07 12:42 | 40.75347 | 9.95459 | 15957 ft | 304 kts | 264° |
| 2026-05-07 12:42 | 40.75427 | 9.92669 | 15557 ft | 307 kts | 277° |
| 2026-05-07 12:42 | 40.76004 | 9.89985 | 15162 ft | 307 kts | 290° |
| 2026-05-07 12:42 | 40.77059 | 9.87522 | 14782 ft | 311 kts | 303° |
| 2026-05-07 12:43 | 40.78344 | 9.85236 | 14384 ft | 305 kts | 303° |
| 2026-05-07 12:43 | 40.79587 | 9.83014 | 13992 ft | 297 kts | 303° |
| 2026-05-07 12:43 | 40.80797 | 9.80846 | 13565 ft | 290 kts | 303° |
| 2026-05-07 12:43 | 40.81985 | 9.78714 | 13142 ft | 285 kts | 303° |
| 2026-05-07 12:44 | 40.83147 | 9.76624 | 12808 ft | 278 kts | 304° |
| 2026-05-07 12:44 | 40.84178 | 9.74515 | 12501 ft | 275 kts | 291° |
| 2026-05-07 12:44 | 40.84660 | 9.72104 | 12193 ft | 270 kts | 272° |
| 2026-05-07 12:44 | 40.84507 | 9.69654 | 11893 ft | 267 kts | 253° |
| 2026-05-07 12:45 | 40.83762 | 9.67435 | 11587 ft | 264 kts | 236° |
| 2026-05-07 12:45 | 40.82713 | 9.65440 | 11292 ft | 263 kts | 234° |
| 2026-05-07 12:45 | 40.81671 | 9.63462 | 10999 ft | 262 kts | 235° |
| 2026-05-07 12:45 | 40.80635 | 9.61489 | 10703 ft | 261 kts | 235° |
| 2026-05-07 12:46 | 40.79607 | 9.59521 | 10410 ft | 260 kts | 235° |
| 2026-05-07 12:46 | 40.78580 | 9.57559 | 10124 ft | 259 kts | 235° |
| 2026-05-07 12:46 | 40.77557 | 9.55601 | 9827 ft | 259 kts | 235° |
| 2026-05-07 12:46 | 40.76537 | 9.53647 | 9499 ft | 258 kts | 235° |
| 2026-05-07 12:47 | 40.75535 | 9.51726 | 9192 ft | 257 kts | 235° |
| 2026-05-07 12:47 | 40.74523 | 9.49789 | 8879 ft | 255 kts | 235° |
| 2026-05-07 12:47 | 40.73515 | 9.47866 | 8567 ft | 255 kts | 235° |
| 2026-05-07 12:47 | 40.72507 | 9.45944 | 8264 ft | 254 kts | 234° |
| 2026-05-07 12:48 | 40.71500 | 9.44026 | 7963 ft | 254 kts | 235° |
| 2026-05-07 12:48 | 40.70493 | 9.42111 | 7667 ft | 253 kts | 235° |
| 2026-05-07 12:48 | 40.69488 | 9.40205 | 7366 ft | 252 kts | 234° |
| 2026-05-07 12:48 | 40.68501 | 9.38333 | 7069 ft | 250 kts | 234° |
| 2026-05-07 12:49 | 40.67525 | 9.36485 | 6769 ft | 243 kts | 234° |
| 2026-05-07 12:49 | 40.66574 | 9.34689 | 6484 ft | 237 kts | 234° |
| 2026-05-07 12:49 | 40.65690 | 9.32870 | 6186 ft | 236 kts | 246° |
| 2026-05-07 12:49 | 40.65379 | 9.30777 | 5878 ft | 234 kts | 274° |
| 2026-05-07 12:50 | 40.65833 | 9.28739 | 5573 ft | 234 kts | 302° |
| 2026-05-07 12:50 | 40.66945 | 9.27210 | 5273 ft | 233 kts | 329° |
| 2026-05-07 12:50 | 40.68418 | 9.26341 | 5029 ft | 233 kts | 340° |
| 2026-05-07 12:50 | 40.69927 | 9.25552 | 4988 ft | 233 kts | 339° |
| 2026-05-07 12:51 | 40.71438 | 9.24759 | 5001 ft | 234 kts | 339° |
| 2026-05-07 12:51 | 40.72958 | 9.24062 | 4983 ft | 233 kts | 352° |
| 2026-05-07 12:51 | 40.74550 | 9.24242 | 4989 ft | 230 kts | 22° |
| 2026-05-07 12:51 | 40.75847 | 9.25439 | 4991 ft | 229 kts | 51° |
| 2026-05-07 12:52 | 40.76796 | 9.27138 | 4991 ft | 229 kts | 55° |
| 2026-05-07 12:52 | 40.77726 | 9.28838 | 4682 ft | 234 kts | 56° |
| 2026-05-07 12:52 | 40.78693 | 9.30597 | 4260 ft | 238 kts | 55° |
| 2026-05-07 12:52 | 40.79652 | 9.32335 | 3863 ft | 229 kts | 56° |
| 2026-05-07 12:53 | 40.80554 | 9.33991 | 3508 ft | 216 kts | 57° |
| 2026-05-07 12:53 | 40.81390 | 9.35572 | 3186 ft | 206 kts | 56° |
| 2026-05-07 12:53 | 40.82188 | 9.37092 | 2876 ft | 196 kts | 57° |
| 2026-05-07 12:53 | 40.82944 | 9.38537 | 2626 ft | 185 kts | 57° |
| 2026-05-07 12:54 | 40.83651 | 9.39884 | 2332 ft | 175 kts | 57° |
| 2026-05-07 12:54 | 40.84331 | 9.41179 | 2063 ft | 169 kts | 57° |
| 2026-05-07 12:54 | 40.84979 | 9.42420 | 1810 ft | 159 kts | 57° |
| 2026-05-07 12:54 | 40.85589 | 9.43587 | 1567 ft | 149 kts | 57° |
| 2026-05-07 12:55 | 40.86153 | 9.44668 | 1357 ft | 142 kts | 55° |
| 2026-05-07 12:55 | 40.86707 | 9.45730 | 1126 ft | 134 kts | 54° |
| 2026-05-07 12:55 | 40.87239 | 9.46746 | 919 ft | 136 kts | 55° |
| 2026-05-07 12:55 | 40.87770 | 9.47759 | 701 ft | 133 kts | 55° |
| 2026-05-07 12:56 | 40.88292 | 9.48758 | 495 ft | 132 kts | 53° |
| 2026-05-07 12:56 | 40.88817 | 9.49757 | 311 ft | 132 kts | 54° |
| 2026-05-07 12:56 | 40.89334 | 9.50744 | 101 ft | 130 kts | 54° |
| 2026-05-07 12:56 | 40.89817 | 9.51673 | 36 ft | 113 kts | 56° |
| 2026-05-07 12:57 | 40.90174 | 9.52351 | 35 ft | 65 kts | 55° |
| 2026-05-07 12:57 | 40.90345 | 9.52679 | 33 ft | 32 kts | 55° |
| 2026-05-07 12:57 | 40.90462 | 9.52895 | 33 ft | 22 kts | 45° |
| 2026-05-07 12:57 | 40.90566 | 9.52893 | 33 ft | 15 kts | 315° |
| 2026-05-07 12:58 | 40.90568 | 9.52762 | 34 ft | 14 kts | 258° |
| 2026-05-07 12:58 | 40.90535 | 9.52648 | 33 ft | 13 kts | 237° |
| 2026-05-07 12:58 | 40.90487 | 9.52554 | 34 ft | 12 kts | 235° |
| 2026-05-07 12:58 | 40.90442 | 9.52468 | 34 ft | 11 kts | 235° |
| 2026-05-07 12:59 | 40.90400 | 9.52391 | 34 ft | 10 kts | 234° |
| 2026-05-07 12:59 | 40.90363 | 9.52321 | 34 ft | 9 kts | 236° |
| 2026-05-07 12:59 | 40.90326 | 9.52251 | 34 ft | 11 kts | 235° |
| 2026-05-07 12:59 | 40.90278 | 9.52161 | 33 ft | 13 kts | 235° |
| 2026-05-07 13:00 | 40.90221 | 9.52051 | 33 ft | 16 kts | 235° |
| 2026-05-07 13:00 | 40.90178 | 9.51928 | 34 ft | 14 kts | 265° |
| 2026-05-07 13:00 | 40.90200 | 9.51812 | 34 ft | 10 kts | 305° |
| 2026-05-07 13:00 | 40.90223 | 9.51752 | 34 ft | 7 kts | 296° |
| 2026-05-07 13:01 | 40.90253 | 9.51722 | 34 ft | 4 kts | 326° |
| 2026-05-07 13:01 | 40.90265 | 9.51711 | 34 ft | 0 kts | 326° |